< < Back
Terminal Aerodrome Forecast


Current Version              Previous Versions:   1  2  3  4  5  6  7  8  9  

Terminal Aerodrome Forecast

184
FTUS42 KGSP 251000 AAB
TAFHKY
TAF AMD
KHKY 251001Z 2510/2606 00000KT P6SM BKN035
      TEMPO 2510/2513 BKN030
     FM251300 02005KT P6SM BKN035
     FM251600 09003KT P6SM SCT045
     FM260000 00000KT P6SM SCT045=

Latest METAR

528
SAUS70 KWBC 251700 RRH
MTRHKY
METAR KHKY 251653Z 06003KT 10SM FEW029 27/18 A3007 RMK AO2 SLP160
T02670183


USA.gov is the U.S. government's official web portal to all federal, state and local government web resources and services.